sensor_id;sensor_type;location;lat;lon;timestamp;pressure;altitude;pressure_sealevel;temperature;humidity
49459;BME280;35354;51.296;16.924;2023-02-03T00:00:19;100299.59;;;-1.16;96.24
49459;BME280;35354;51.296;16.924;2023-02-03T00:08:35;100285.00;;;-1.23;95.04
49459;BME280;35354;51.296;16.924;2023-02-03T00:11:02;100314.31;;;-0.95;95.63
49459;BME280;35354;51.296;16.924;2023-02-03T00:13:28;100330.59;;;-0.87;95.37
49459;BME280;35354;51.296;16.924;2023-02-03T00:15:53;100331.47;;;-0.82;96.24
49459;BME280;35354;51.296;16.924;2023-02-03T00:18:18;100322.94;;;-0.84;94.91
49459;BME280;35354;51.296;16.924;2023-02-03T00:20:44;100300.63;;;-0.99;94.49
49459;BME280;35354;51.296;16.924;2023-02-03T00:23:10;100330.63;;;-0.81;95.59
49459;BME280;35354;51.296;16.924;2023-02-03T00:25:36;100326.38;;;-0.84;96.72
49459;BME280;35354;51.296;16.924;2023-02-03T00:28:02;100329.78;;;-0.83;95.56
49459;BME280;35354;51.296;16.924;2023-02-03T00:30:28;100323.81;;;-0.84;96.35
49459;BME280;35354;51.296;16.924;2023-02-03T00:32:54;100318.69;;;-0.84;95.68
49459;BME280;35354;51.296;16.924;2023-02-03T00:35:20;100285.31;;;-0.93;95.91
49459;BME280;35354;51.296;16.924;2023-02-03T00:37:50;100303.34;;;-0.82;95.22
49459;BME280;35354;51.296;16.924;2023-02-03T00:40:17;100315.31;;;-0.78;95.76
49459;BME280;35354;51.296;16.924;2023-02-03T00:42:43;100263.97;;;-0.99;95.76
49459;BME280;35354;51.296;16.924;2023-02-03T00:45:08;100286.31;;;-0.82;95.96
49459;BME280;35354;51.296;16.924;2023-02-03T00:47:34;100290.59;;;-0.76;96.58
49459;BME280;35354;51.296;16.924;2023-02-03T00:49:59;100301.78;;;-0.69;96.72
49459;BME280;35354;51.296;16.924;2023-02-03T00:52:24;100275.22;;;-0.84;96.42
49459;BME280;35354;51.296;16.924;2023-02-03T00:54:49;100273.50;;;-0.82;96.68
49459;BME280;35354;51.296;16.924;2023-02-03T00:57:15;100295.78;;;-0.70;97.15
49459;BME280;35354;51.296;16.924;2023-02-03T00:59:40;100282.06;;;-0.80;97.07
49459;BME280;35354;51.296;16.924;2023-02-03T01:02:05;100294.06;;;-0.74;96.70
49459;BME280;35354;51.296;16.924;2023-02-03T01:04:31;100258.09;;;-0.91;97.05
49459;BME280;35354;51.296;16.924;2023-02-03T01:06:56;100279.47;;;-0.81;96.85
49459;BME280;35354;51.296;16.924;2023-02-03T01:09:24;100285.56;;;-0.70;96.75
49459;BME280;35354;51.296;16.924;2023-02-03T01:11:49;100252.19;;;-0.82;96.80
49459;BME280;35354;51.296;16.924;2023-02-03T01:14:15;100247.91;;;-0.88;96.48
49459;BME280;35354;51.296;16.924;2023-02-03T01:16:40;100261.53;;;-0.86;97.11
49459;BME280;35354;51.296;16.924;2023-02-03T01:19:06;100248.72;;;-0.89;96.20
49459;BME280;35354;51.296;16.924;2023-02-03T01:21:31;100257.34;;;-0.76;96.59
49459;BME280;35354;51.296;16.924;2023-02-03T01:23:58;100230.81;;;-0.89;95.90
49459;BME280;35354;51.296;16.924;2023-02-03T01:26:24;100218.06;;;-0.87;96.15
49459;BME280;35354;51.296;16.924;2023-02-03T01:28:53;100220.63;;;-0.86;97.58
49459;BME280;35354;51.296;16.924;2023-02-03T01:31:25;100210.41;;;-0.86;97.14
49459;BME280;35354;51.296;16.924;2023-02-03T01:33:52;100225.84;;;-0.72;97.27
49459;BME280;35354;51.296;16.924;2023-02-03T01:36:19;100229.31;;;-0.67;97.43
49459;BME280;35354;51.296;16.924;2023-02-03T01:38:45;100217.34;;;-0.69;97.35
49459;BME280;35354;51.296;16.924;2023-02-03T01:41:16;100213.13;;;-0.66;97.28
49459;BME280;35354;51.296;16.924;2023-02-03T01:43:47;100191.75;;;-0.72;97.56
49459;BME280;35354;51.296;16.924;2023-02-03T01:46:29;100199.47;;;-0.65;97.07
49459;BME280;35354;51.296;16.924;2023-02-03T01:51:25;100174.75;;;-0.67;97.24
49459;BME280;35354;51.296;16.924;2023-02-03T01:53:52;100161.09;;;-0.71;97.64
49459;BME280;35354;51.296;16.924;2023-02-03T01:56:18;100157.66;;;-0.70;97.67
49459;BME280;35354;51.296;16.924;2023-02-03T01:58:45;100152.56;;;-0.71;97.75
49459;BME280;35354;51.296;16.924;2023-02-03T02:01:11;100152.56;;;-0.70;98.35
49459;BME280;35354;51.296;16.924;2023-02-03T02:03:43;100142.31;;;-0.71;97.97
49459;BME280;35354;51.296;16.924;2023-02-03T02:06:12;100083.31;;;-0.97;98.00
49459;BME280;35354;51.296;16.924;2023-02-03T02:08:40;100112.41;;;-0.80;97.91
49459;BME280;35354;51.296;16.924;2023-02-03T02:11:06;100138.94;;;-0.66;98.10
49459;BME280;35354;51.296;16.924;2023-02-03T02:13:33;100099.56;;;-0.91;98.24
49459;BME280;35354;51.296;16.924;2023-02-03T02:26:50;100157.66;;;-0.68;98.52
49459;BME280;35354;51.296;16.924;2023-02-03T02:29:39;100119.22;;;-0.81;98.57
49459;BME280;35354;51.296;16.924;2023-02-03T02:34:51;100145.81;;;-0.56;98.55
49459;BME280;35354;51.296;16.924;2023-02-03T02:40:21;100132.19;;;-0.58;99.19
49459;BME280;35354;51.296;16.924;2023-02-03T02:43:03;100119.41;;;-0.55;99.25
49459;BME280;35354;51.296;16.924;2023-02-03T02:45:50;100095.47;;;-0.61;99.40
49459;BME280;35354;51.296;16.924;2023-02-03T02:50:45;100072.41;;;-0.70;99.61
49459;BME280;35354;51.296;16.924;2023-02-03T02:53:13;100069.03;;;-0.66;99.90
49459;BME280;35354;51.296;16.924;2023-02-03T02:55:39;100041.63;;;-0.87;100.00
49459;BME280;35354;51.296;16.924;2023-02-03T02:58:08;100062.13;;;-0.77;100.00
49459;BME280;35354;51.296;16.924;2023-02-03T03:00:35;100070.66;;;-0.79;100.00
49459;BME280;35354;51.296;16.924;2023-02-03T03:05:41;100042.47;;;-0.85;100.00
49459;BME280;35354;51.296;16.924;2023-02-03T03:08:09;100015.16;;;-0.94;100.00
49459;BME280;35354;51.296;16.924;2023-02-03T03:10:38;100011.72;;;-0.93;100.00
49459;BME280;35354;51.296;16.924;2023-02-03T03:13:08;100004.09;;;-0.91;100.00
49459;BME280;35354;51.296;16.924;2023-02-03T03:15:35;100020.41;;;-0.71;100.00
49459;BME280;35354;51.296;16.924;2023-02-03T03:20:47;100028.97;;;-0.55;100.00
49459;BME280;35354;51.296;16.924;2023-02-03T03:23:26;100007.63;;;-0.66;100.00
49459;BME280;35354;51.296;16.924;2023-02-03T03:25:59;100024.75;;;-0.55;100.00
49459;BME280;35354;51.296;16.924;2023-02-03T03:28:36;100004.22;;;-0.61;100.00
49459;BME280;35354;51.296;16.924;2023-02-03T03:31:04;100026.50;;;-0.41;100.00
49459;BME280;35354;51.296;16.924;2023-02-03T03:33:30;100026.53;;;-0.32;100.00
49459;BME280;35354;51.296;16.924;2023-02-03T03:36:02;99990.59;;;-0.57;100.00
49459;BME280;35354;51.296;16.924;2023-02-03T03:38:48;100017.16;;;-0.27;100.00
49459;BME280;35354;51.296;16.924;2023-02-03T03:41:22;99992.41;;;-0.37;99.61
49459;BME280;35354;51.296;16.924;2023-02-03T03:43:51;99964.22;;;-0.42;99.45
49459;BME280;35354;51.296;16.924;2023-02-03T03:46:26;100007.00;;;-0.04;99.14
49459;BME280;35354;51.296;16.924;2023-02-03T03:48:56;100006.97;;;0.02;98.78
49459;BME280;35354;51.296;16.924;2023-02-03T03:51:55;100006.13;;;0.03;98.29
49459;BME280;35354;51.296;16.924;2023-02-03T03:54:24;99995.06;;;0.10;98.16
49459;BME280;35354;51.296;16.924;2023-02-03T03:57:10;99989.06;;;0.07;98.52
49459;BME280;35354;51.296;16.924;2023-02-03T03:59:40;99983.09;;;0.14;97.92
49459;BME280;35354;51.296;16.924;2023-02-03T04:02:08;99946.38;;;-0.01;97.96
49459;BME280;35354;51.296;16.924;2023-02-03T04:04:36;99931.84;;;-0.09;97.64
49459;BME280;35354;51.296;16.924;2023-02-03T04:07:03;99953.22;;;0.10;98.12
49459;BME280;35354;51.296;16.924;2023-02-03T04:09:28;99974.56;;;0.21;97.57
49459;BME280;35354;51.296;16.924;2023-02-03T04:11:53;99972.00;;;0.15;98.02
49459;BME280;35354;51.296;16.924;2023-02-03T04:14:25;99966.03;;;0.13;97.66
49459;BME280;35354;51.296;16.924;2023-02-03T04:16:50;99947.25;;;0.05;98.13
49459;BME280;35354;51.296;16.924;2023-02-03T04:19:15;99951.50;;;0.04;98.12
49459;BME280;35354;51.296;16.924;2023-02-03T04:21:41;99917.34;;;-0.16;98.67
49459;BME280;35354;51.296;16.924;2023-02-03T04:24:06;99947.25;;;0.06;98.67
49459;BME280;35354;51.296;16.924;2023-02-03T04:26:31;99903.72;;;-0.03;98.17
49459;BME280;35354;51.296;16.924;2023-02-03T04:28:57;99907.97;;;0.04;98.23
49459;BME280;35354;51.296;16.924;2023-02-03T04:31:22;99925.88;;;0.12;97.75
49459;BME280;35354;51.296;16.924;2023-02-03T04:33:47;99901.16;;;0.09;97.68
49459;BME280;35354;51.296;16.924;2023-02-03T04:36:13;99895.16;;;0.03;97.38
49459;BME280;35354;51.296;16.924;2023-02-03T04:38:39;99920.75;;;0.12;97.94
49459;BME280;35354;51.296;16.924;2023-02-03T04:41:04;99884.91;;;-0.13;98.43
49459;BME280;35354;51.296;16.924;2023-02-03T04:43:30;99891.75;;;0.05;97.76
49459;BME280;35354;51.296;16.924;2023-02-03T04:45:55;99895.19;;;0.09;97.82
49459;BME280;35354;51.296;16.924;2023-02-03T04:48:22;99896.03;;;0.09;97.53
49459;BME280;35354;51.296;16.924;2023-02-03T04:50:48;99886.63;;;0.08;97.89
49459;BME280;35354;51.296;16.924;2023-02-03T04:53:13;99890.88;;;0.24;97.34
49459;BME280;35354;51.296;16.924;2023-02-03T04:55:38;99893.44;;;0.17;97.04
49459;BME280;35354;51.296;16.924;2023-02-03T04:58:04;99857.59;;;0.06;97.24
49459;BME280;35354;51.296;16.924;2023-02-03T05:00:29;99879.81;;;0.13;97.24
49459;BME280;35354;51.296;16.924;2023-02-03T05:02:54;99856.75;;;0.01;96.74
49459;BME280;35354;51.296;16.924;2023-02-03T05:05:20;99877.22;;;0.16;96.80
49459;BME280;35354;51.296;16.924;2023-02-03T05:07:45;99843.97;;;-0.07;97.70
49459;BME280;35354;51.296;16.924;2023-02-03T05:10:11;99858.47;;;-0.04;97.30
49459;BME280;35354;51.296;16.924;2023-02-03T05:12:36;99851.63;;;-0.02;97.48
49459;BME280;35354;51.296;16.924;2023-02-03T05:15:01;99878.94;;;0.16;98.13
49459;BME280;35354;51.296;16.924;2023-02-03T05:17:27;99864.44;;;0.15;98.00
49459;BME280;35354;51.296;16.924;2023-02-03T05:19:52;99836.25;;;-0.01;98.90
49459;BME280;35354;51.296;16.924;2023-02-03T05:22:18;99817.53;;;-0.16;99.14
49459;BME280;35354;51.296;16.924;2023-02-03T05:24:43;99837.13;;;0.09;99.88
49459;BME280;35354;51.296;16.924;2023-02-03T05:27:08;99850.75;;;0.20;100.00
49459;BME280;35354;51.296;16.924;2023-02-03T05:29:34;99850.72;;;0.33;99.72
49459;BME280;35354;51.296;16.924;2023-02-03T05:31:59;99862.66;;;0.46;99.53
49459;BME280;35354;51.296;16.924;2023-02-03T05:34:24;99840.47;;;0.37;99.37
49459;BME280;35354;51.296;16.924;2023-02-03T05:36:50;99845.56;;;0.49;99.07
49459;BME280;35354;51.296;16.924;2023-02-03T05:39:15;99812.31;;;0.28;99.26
49459;BME280;35354;51.296;16.924;2023-02-03T05:41:40;99799.47;;;0.37;100.00
49459;BME280;35354;51.296;16.924;2023-02-03T05:44:23;99799.50;;;0.31;100.00
49459;BME280;35354;51.296;16.924;2023-02-03T05:46:49;99793.56;;;0.21;100.00
49459;BME280;35354;51.296;16.924;2023-02-03T05:49:16;99779.03;;;0.28;100.00
49459;BME280;35354;51.296;16.924;2023-02-03T05:51:44;99748.38;;;-0.04;100.00
49459;BME280;35354;51.296;16.924;2023-02-03T05:54:09;99775.63;;;0.15;100.00
49459;BME280;35354;51.296;16.924;2023-02-03T05:56:34;99752.59;;;0.08;100.00
49459;BME280;35354;51.296;16.924;2023-02-03T05:59:00;99776.47;;;0.19;100.00
49459;BME280;35354;51.296;16.924;2023-02-03T06:01:25;99732.16;;;-0.02;100.00
49459;BME280;35354;51.296;16.924;2023-02-03T06:03:50;99765.47;;;-0.12;100.00
49459;BME280;35354;51.296;16.924;2023-02-03T06:06:16;99762.88;;;-0.21;100.00
49459;BME280;35354;51.296;16.924;2023-02-03T06:08:42;99738.16;;;-0.30;100.00
49459;BME280;35354;51.296;16.924;2023-02-03T06:11:08;99722.81;;;-0.32;100.00
49459;BME280;35354;51.296;16.924;2023-02-03T06:13:34;99693.84;;;-0.37;100.00
49459;BME280;35354;51.296;16.924;2023-02-03T06:15:59;99737.25;;;-0.02;100.00
49459;BME280;35354;51.296;16.924;2023-02-03T06:18:25;99739.81;;;-0.02;100.00
49459;BME280;35354;51.296;16.924;2023-02-03T06:20:50;99709.13;;;-0.14;100.00
49459;BME280;35354;51.296;16.924;2023-02-03T06:23:15;99681.88;;;-0.21;100.00
49459;BME280;35354;51.296;16.924;2023-02-03T06:25:47;99722.69;;;0.16;100.00
49459;BME280;35354;51.296;16.924;2023-02-03T06:28:12;99716.75;;;0.08;100.00
49459;BME280;35354;51.296;16.924;2023-02-03T06:30:37;99709.91;;;0.08;100.00
49459;BME280;35354;51.296;16.924;2023-02-03T06:33:03;99686.91;;;0.01;100.00
49459;BME280;35354;51.296;16.924;2023-02-03T06:35:28;99701.38;;;0.12;100.00
49459;BME280;35354;51.296;16.924;2023-02-03T06:37:54;99660.47;;;-0.06;100.00
49459;BME280;35354;51.296;16.924;2023-02-03T06:40:19;99692.03;;;0.05;100.00
49459;BME280;35354;51.296;16.924;2023-02-03T06:42:45;99679.19;;;0.13;100.00
49459;BME280;35354;51.296;16.924;2023-02-03T06:45:11;99656.22;;;-0.04;100.00
49459;BME280;35354;51.296;16.924;2023-02-03T06:47:39;99631.44;;;-0.05;100.00
49459;BME280;35354;51.296;16.924;2023-02-03T06:50:05;99624.66;;;-0.08;100.00
49459;BME280;35354;51.296;16.924;2023-02-03T06:52:31;99636.50;;;0.07;100.00
49459;BME280;35354;51.296;16.924;2023-02-03T06:54:56;99605.81;;;-0.01;100.00
49459;BME280;35354;51.296;16.924;2023-02-03T06:57:21;99618.59;;;0.09;100.00
49459;BME280;35354;51.296;16.924;2023-02-03T06:59:47;99605.84;;;-0.04;100.00
49459;BME280;35354;51.296;16.924;2023-02-03T07:02:12;99604.91;;;0.11;100.00
49459;BME280;35354;51.296;16.924;2023-02-03T07:04:37;99607.41;;;0.20;100.00
49459;BME280;35354;51.296;16.924;2023-02-03T07:07:03;99575.06;;;0.10;100.00
49459;BME280;35354;51.296;16.924;2023-02-03T07:09:28;99567.34;;;0.13;100.00
49459;BME280;35354;51.296;16.924;2023-02-03T07:11:54;99551.13;;;0.11;100.00
49459;BME280;35354;51.296;16.924;2023-02-03T07:14:19;99561.34;;;0.19;100.00
49459;BME280;35354;51.296;16.924;2023-02-03T07:16:44;99570.69;;;0.24;100.00
49459;BME280;35354;51.296;16.924;2023-02-03T07:19:10;99540.84;;;0.16;100.00
49459;BME280;35354;51.296;16.924;2023-02-03T07:21:35;99525.50;;;0.14;100.00
49459;BME280;35354;51.296;16.924;2023-02-03T07:24:00;99544.91;;;0.46;100.00
49459;BME280;35354;51.296;16.924;2023-02-03T07:26:27;99556.72;;;0.67;100.00
49459;BME280;35354;51.296;16.924;2023-02-03T07:28:53;99534.41;;;0.80;100.00
49459;BME280;35354;51.296;16.924;2023-02-03T07:31:18;99517.47;;;0.62;100.00
49459;BME280;35354;51.296;16.924;2023-02-03T07:33:44;99533.53;;;0.79;100.00
49459;BME280;35354;51.296;16.924;2023-02-03T07:36:10;99528.28;;;0.94;100.00
49459;BME280;35354;51.296;16.924;2023-02-03T07:38:36;99502.75;;;0.82;100.00
49459;BME280;35354;51.296;16.924;2023-02-03T07:41:04;99494.31;;;0.72;100.00
49459;BME280;35354;51.296;16.924;2023-02-03T07:43:30;99500.31;;;0.70;100.00
49459;BME280;35354;51.296;16.924;2023-02-03T07:45:55;99469.00;;;0.39;100.00
49459;BME280;35354;51.296;16.924;2023-02-03T07:48:20;99488.47;;;0.57;100.00
49459;BME280;35354;51.296;16.924;2023-02-03T07:50:49;99462.09;;;0.45;100.00
49459;BME280;35354;51.296;16.924;2023-02-03T07:53:15;99454.34;;;0.52;100.00
49459;BME280;35354;51.296;16.924;2023-02-03T07:55:41;99449.19;;;0.56;100.00
49459;BME280;35354;51.296;16.924;2023-02-03T07:58:06;99417.63;;;0.49;100.00
49459;BME280;35354;51.296;16.924;2023-02-03T08:00:32;99451.59;;;0.71;100.00
49459;BME280;35354;51.296;16.924;2023-02-03T08:02:58;99461.72;;;0.85;100.00
49459;BME280;35354;51.296;16.924;2023-02-03T08:05:23;99429.34;;;0.75;100.00
49459;BME280;35354;51.296;16.924;2023-02-03T08:07:49;99436.91;;;0.87;100.00
49459;BME280;35354;51.296;16.924;2023-02-03T08:10:14;99432.72;;;0.80;100.00
49459;BME280;35354;51.296;16.924;2023-02-03T08:12:41;99403.75;;;0.72;100.00
49459;BME280;35354;51.296;16.924;2023-02-03T08:15:08;99401.88;;;0.86;100.00
49459;BME280;35354;51.296;16.924;2023-02-03T08:17:33;99395.88;;;0.87;100.00
49459;BME280;35354;51.296;16.924;2023-02-03T08:19:59;99414.53;;;1.02;100.00
49459;BME280;35354;51.296;16.924;2023-02-03T08:22:25;99407.72;;;0.99;100.00
49459;BME280;35354;51.296;16.924;2023-02-03T08:24:50;99378.84;;;0.82;100.00
49459;BME280;35354;51.296;16.924;2023-02-03T08:27:18;99393.19;;;0.98;100.00
49459;BME280;35354;51.296;16.924;2023-02-03T08:29:44;99383.81;;;0.95;100.00
49459;BME280;35354;51.296;16.924;2023-02-03T08:32:12;99388.75;;;1.12;100.00
49459;BME280;35354;51.296;16.924;2023-02-03T08:34:38;99388.94;;;0.95;100.00
49459;BME280;35354;51.296;16.924;2023-02-03T08:37:04;99382.81;;;1.07;100.00
49459;BME280;35354;51.296;16.924;2023-02-03T08:39:29;99353.94;;;0.91;100.00
49459;BME280;35354;51.296;16.924;2023-02-03T08:41:54;99350.59;;;0.86;100.00
49459;BME280;35354;51.296;16.924;2023-02-03T08:44:20;99319.91;;;0.79;100.00
49459;BME280;35354;51.296;16.924;2023-02-03T08:46:50;99339.28;;;1.01;100.00
49459;BME280;35354;51.296;16.924;2023-02-03T08:49:15;99339.25;;;1.06;100.00
49459;BME280;35354;51.296;16.924;2023-02-03T08:51:40;99306.97;;;0.89;100.00
49459;BME280;35354;51.296;16.924;2023-02-03T08:54:06;99300.78;;;1.06;100.00
49459;BME280;35354;51.296;16.924;2023-02-03T08:56:32;99327.16;;;1.15;100.00
49459;BME280;35354;51.296;16.924;2023-02-03T08:58:58;99303.50;;;0.93;100.00
49459;BME280;35354;51.296;16.924;2023-02-03T09:01:24;99294.91;;;0.96;100.00
49459;BME280;35354;51.296;16.924;2023-02-03T09:03:49;99298.16;;;1.09;100.00
49459;BME280;35354;51.296;16.924;2023-02-03T09:06:14;99288.09;;;0.95;100.00
49459;BME280;35354;51.296;16.924;2023-02-03T09:08:44;99294.63;;;1.19;100.00
49459;BME280;35354;51.296;16.924;2023-02-03T09:11:11;99305.63;;;1.25;100.00
49459;BME280;35354;51.296;16.924;2023-02-03T09:13:38;99285.25;;;1.15;100.00
49459;BME280;35354;51.296;16.924;2023-02-03T09:16:06;99273.81;;;1.37;100.00
49459;BME280;35354;51.296;16.924;2023-02-03T09:18:31;99258.41;;;1.37;100.00
49459;BME280;35354;51.296;16.924;2023-02-03T09:21:01;99249.69;;;1.47;100.00
49459;BME280;35354;51.296;16.924;2023-02-03T09:23:26;99280.16;;;1.67;100.00
49459;BME280;35354;51.296;16.924;2023-02-03T09:25:51;99262.28;;;1.63;100.00
49459;BME280;35354;51.296;16.924;2023-02-03T09:28:17;99274.25;;;1.62;100.00
49459;BME280;35354;51.296;16.924;2023-02-03T09:30:42;99242.69;;;1.57;100.00
49459;BME280;35354;51.296;16.924;2023-02-03T09:33:07;99245.19;;;1.62;100.00
49459;BME280;35354;51.296;16.924;2023-02-03T09:35:33;99218.84;;;1.50;100.00
49459;BME280;35354;51.296;16.924;2023-02-03T09:37:58;99211.13;;;1.50;100.00
49459;BME280;35354;51.296;16.924;2023-02-03T09:40:29;99191.53;;;1.46;100.00
49459;BME280;35354;51.296;16.924;2023-02-03T09:43:29;99243.13;;;1.81;100.00
49459;BME280;35354;51.296;16.924;2023-02-03T09:46:06;99201.50;;;1.65;100.00
49459;BME280;35354;51.296;16.924;2023-02-03T09:48:36;99225.94;;;1.86;100.00
49459;BME280;35354;51.296;16.924;2023-02-03T09:51:06;99215.59;;;1.90;100.00
49459;BME280;35354;51.296;16.924;2023-02-03T09:53:42;99185.84;;;1.79;100.00
49459;BME280;35354;51.296;16.924;2023-02-03T09:56:22;99208.53;;;2.00;100.00
49459;BME280;35354;51.296;16.924;2023-02-03T09:58:50;99191.34;;;2.04;100.00
49459;BME280;35354;51.296;16.924;2023-02-03T10:01:16;99192.19;;;2.04;100.00
49459;BME280;35354;51.296;16.924;2023-02-03T10:03:50;99176.03;;;1.99;100.00
49459;BME280;35354;51.296;16.924;2023-02-03T10:06:36;99174.22;;;2.04;100.00
49459;BME280;35354;51.296;16.924;2023-02-03T10:11:44;99145.81;;;2.10;100.00
49459;BME280;35354;51.296;16.924;2023-02-03T10:19:52;99099.44;;;2.18;100.00
49459;BME280;35354;51.296;16.924;2023-02-03T10:22:24;99094.91;;;2.29;100.00
49459;BME280;35354;51.296;16.924;2023-02-03T10:27:40;99064.78;;;2.36;100.00
49459;BME280;35354;51.296;16.924;2023-02-03T10:32:34;99024.69;;;2.29;100.00
49459;BME280;35354;51.296;16.924;2023-02-03T10:35:00;99007.50;;;2.31;100.00
49459;BME280;35354;51.296;16.924;2023-02-03T10:37:29;99019.28;;;2.41;100.00
49459;BME280;35354;51.296;16.924;2023-02-03T10:39:58;99007.25;;;2.41;100.00
49459;BME280;35354;51.296;16.924;2023-02-03T10:42:25;99000.06;;;2.56;100.00
49459;BME280;35354;51.296;16.924;2023-02-03T10:45:11;98960.16;;;2.41;100.00
49459;BME280;35354;51.296;16.924;2023-02-03T10:47:40;98975.13;;;2.59;100.00
49459;BME280;35354;51.296;16.924;2023-02-03T10:50:19;98962.38;;;2.55;100.00
49459;BME280;35354;51.296;16.924;2023-02-03T10:52:45;98958.63;;;2.68;100.00
49459;BME280;35354;51.296;16.924;2023-02-03T10:57:45;98932.84;;;2.69;100.00
49459;BME280;35354;51.296;16.924;2023-02-03T11:00:31;98950.47;;;2.85;100.00
49459;BME280;35354;51.296;16.924;2023-02-03T11:05:26;98899.34;;;2.74;100.00
49459;BME280;35354;51.296;16.924;2023-02-03T11:07:52;98922.47;;;3.05;100.00
49459;BME280;35354;51.296;16.924;2023-02-03T11:13:20;98899.88;;;3.16;100.00
49459;BME280;35354;51.296;16.924;2023-02-03T11:16:16;98892.72;;;3.26;100.00
49459;BME280;35354;51.296;16.924;2023-02-03T11:19:01;98882.28;;;3.31;100.00
49459;BME280;35354;51.296;16.924;2023-02-03T11:21:32;98850.84;;;3.21;100.00
49459;BME280;35354;51.296;16.924;2023-02-03T11:24:21;98864.81;;;3.40;100.00
49459;BME280;35354;51.296;16.924;2023-02-03T11:26:57;98855.50;;;3.38;100.00
49459;BME280;35354;51.296;16.924;2023-02-03T11:29:27;98817.94;;;3.31;100.00
49459;BME280;35354;51.296;16.924;2023-02-03T11:31:58;98854.16;;;3.53;100.00
49459;BME280;35354;51.296;16.924;2023-02-03T11:34:27;98846.41;;;3.54;100.00
49459;BME280;35354;51.296;16.924;2023-02-03T11:36:53;98842.72;;;3.61;100.00
49459;BME280;35354;51.296;16.924;2023-02-03T11:39:29;98842.56;;;3.67;100.00
49459;BME280;35354;51.296;16.924;2023-02-03T11:42:00;98823.69;;;3.67;100.00
49459;BME280;35354;51.296;16.924;2023-02-03T11:44:27;98788.91;;;3.54;100.00
49459;BME280;35354;51.296;16.924;2023-02-03T11:47:08;98775.56;;;3.42;100.00
49459;BME280;35354;51.296;16.924;2023-02-03T11:55:07;98781.69;;;3.65;100.00
49459;BME280;35354;51.296;16.924;2023-02-03T11:57:58;98744.19;;;3.56;100.00
49459;BME280;35354;51.296;16.924;2023-02-03T12:03:54;98767.66;;;3.73;100.00
49459;BME280;35354;51.296;16.924;2023-02-03T12:20:04;98737.81;;;4.18;100.00
49459;BME280;35354;51.296;16.924;2023-02-03T12:27:58;98718.75;;;4.47;100.00
49459;BME280;35354;51.296;16.924;2023-02-03T12:30:31;98715.34;;;4.45;100.00
49459;BME280;35354;51.296;16.924;2023-02-03T12:33:03;98673.78;;;4.31;100.00
49459;BME280;35354;51.296;16.924;2023-02-03T12:35:47;98701.91;;;4.60;100.00
49459;BME280;35354;51.296;16.924;2023-02-03T12:38:30;98708.50;;;4.67;100.00
49459;BME280;35354;51.296;16.924;2023-02-03T12:41:00;98702.41;;;4.23;100.00
49459;BME280;35354;51.296;16.924;2023-02-03T12:46:43;98696.34;;;4.00;100.00
49459;BME280;35354;51.296;16.924;2023-02-03T12:51:50;98681.75;;;3.99;100.00
49459;BME280;35354;51.296;16.924;2023-02-03T12:54:42;98683.31;;;4.05;100.00
49459;BME280;35354;51.296;16.924;2023-02-03T12:59:40;98687.91;;;3.95;100.00
49459;BME280;35354;51.296;16.924;2023-02-03T13:02:17;98670.88;;;3.91;100.00
49459;BME280;35354;51.296;16.924;2023-02-03T13:04:55;98666.63;;;3.90;100.00
49459;BME280;35354;51.296;16.924;2023-02-03T13:08:05;98689.16;;;4.09;100.00
49459;BME280;35354;51.296;16.924;2023-02-03T13:10:49;98695.75;;;4.17;100.00
49459;BME280;35354;51.296;16.924;2023-02-03T13:13:25;98688.44;;;4.29;100.00
49459;BME280;35354;51.296;16.924;2023-02-03T13:15:53;98659.28;;;4.05;100.00
49459;BME280;35354;51.296;16.924;2023-02-03T13:20:46;98698.59;;;4.33;100.00
49459;BME280;35354;51.296;16.924;2023-02-03T13:23:13;98707.72;;;4.18;100.00
49459;BME280;35354;51.296;16.924;2023-02-03T13:37:05;98673.72;;;4.56;100.00
49459;BME280;35354;51.296;16.924;2023-02-03T13:42:31;98648.47;;;4.18;100.00
49459;BME280;35354;51.296;16.924;2023-02-03T13:45:05;98685.06;;;4.50;100.00
49459;BME280;35354;51.296;16.924;2023-02-03T13:47:33;98673.16;;;4.47;100.00
49459;BME280;35354;51.296;16.924;2023-02-03T13:50:05;98684.47;;;4.43;100.00
49459;BME280;35354;51.296;16.924;2023-02-03T13:52:52;98686.50;;;4.35;100.00
49459;BME280;35354;51.296;16.924;2023-02-03T13:55:37;98703.22;;;4.70;100.00
49459;BME280;35354;51.296;16.924;2023-02-03T13:58:05;98694.72;;;4.68;100.00
49459;BME280;35354;51.296;16.924;2023-02-03T14:06:01;98696.84;;;4.34;100.00
49459;BME280;35354;51.296;16.924;2023-02-03T14:16:38;98719.94;;;4.37;100.00
49459;BME280;35354;51.296;16.924;2023-02-03T14:19:07;98699.34;;;4.13;100.00
49459;BME280;35354;51.296;16.924;2023-02-03T14:21:45;98718.53;;;4.05;100.00
49459;BME280;35354;51.296;16.924;2023-02-03T14:24:12;98728.25;;;4.21;100.00
49459;BME280;35354;51.296;16.924;2023-02-03T14:26:41;98700.97;;;4.39;100.00
49459;BME280;35354;51.296;16.924;2023-02-03T14:29:09;98719.97;;;4.60;100.00
49459;BME280;35354;51.296;16.924;2023-02-03T14:31:53;98676.50;;;4.49;100.00
49459;BME280;35354;51.296;16.924;2023-02-03T14:34:29;98675.69;;;4.02;100.00
49459;BME280;35354;51.296;16.924;2023-02-03T14:36:55;98721.72;;;4.11;100.00
49459;BME280;35354;51.296;16.924;2023-02-03T14:39:32;98725.44;;;4.28;100.00
49459;BME280;35354;51.296;16.924;2023-02-03T14:42:36;98708.53;;;3.95;100.00
49459;BME280;35354;51.296;16.924;2023-02-03T15:02:29;98759.03;;;4.49;100.00
49459;BME280;35354;51.296;16.924;2023-02-03T15:07:46;98771.69;;;4.32;100.00
49459;BME280;35354;51.296;16.924;2023-02-03T15:10:23;98742.09;;;3.94;100.00
49459;BME280;35354;51.296;16.924;2023-02-03T15:12:51;98766.75;;;4.26;100.00
49459;BME280;35354;51.296;16.924;2023-02-03T15:15:24;98776.63;;;4.38;100.00
49459;BME280;35354;51.296;16.924;2023-02-03T15:17:54;98745.47;;;4.44;100.00